Time;durP1;ratioP1;P1;durP2;ratioP2;P2;SDS_P1;SDS_P2;PMS_P1;PMS_P2;Temp;Humidity;BMP_temperature;BMP_pressure;BME280_temperature;BME280_humidity;BME280_pressure;Samples;Min_cycle;Max_cycle;Signal;HPM_P1;HPM_P2
2023/03/01 00:01:21;;;;;;;431.58;164.77;;;-5.50;99.90;;;;;;5051952;28;20035;-78
2023/03/01 00:03:47;;;;;;;481.25;179.70;;;-5.60;99.90;;;;;;5053254;28;20017;-79
2023/03/01 00:06:13;;;;;;;441.13;164.85;;;-5.50;99.90;;;;;;5051876;28;20024;-80
2023/03/01 00:08:38;;;;;;;441.90;168.45;;;-5.50;99.90;;;;;;5051733;28;20036;-80
2023/03/01 00:11:15;;;;;;;282.75;111.10;;;-5.50;99.90;;;;;;5052045;28;20047;-78
2023/03/01 00:13:41;;;;;;;340.10;122.85;;;-5.60;99.90;;;;;;5052259;28;20072;-78
2023/03/01 00:16:11;;;;;;;278.15;107.95;;;-5.60;99.90;;;;;;5051874;28;20067;-78
2023/03/01 00:18:36;;;;;;;302.88;114.97;;;-5.60;99.90;;;;;;5051743;28;20036;-80
2023/03/01 00:21:02;;;;;;;367.45;134.18;;;-5.60;99.90;;;;;;5052864;28;20040;-80
2023/03/01 00:23:28;;;;;;;294.00;107.10;;;-5.60;99.90;;;;;;5053014;28;20029;-79
2023/03/01 00:25:55;;;;;;;229.57;89.32;;;-5.60;99.90;;;;;;5053072;28;20112;-79
2023/03/01 00:28:20;;;;;;;235.10;95.25;;;-5.60;99.90;;;;;;5053038;28;20035;-79
2023/03/01 00:30:46;;;;;;;275.27;103.60;;;-5.60;99.90;;;;;;5051607;28;20029;-80
2023/03/01 00:33:12;;;;;;;302.25;103.45;;;-5.60;99.90;;;;;;5051729;28;20025;-80
2023/03/01 00:35:38;;;;;;;276.67;103.72;;;-5.60;99.90;;;;;;5051689;28;20021;-78
2023/03/01 00:38:04;;;;;;;269.05;101.97;;;-5.60;99.90;;;;;;5051353;28;20031;-79
2023/03/01 00:40:33;;;;;;;278.15;105.57;;;-5.60;99.90;;;;;;5051633;28;20017;-78
2023/03/01 00:42:59;;;;;;;207.38;76.90;;;-5.60;99.90;;;;;;5053426;28;20025;-80
2023/03/01 00:45:26;;;;;;;208.07;74.97;;;-5.70;99.90;;;;;;5055127;28;20020;-79
2023/03/01 00:47:52;;;;;;;205.18;74.03;;;-5.70;99.90;;;;;;5057053;28;20045;-79
2023/03/01 00:50:19;;;;;;;193.35;72.22;;;-5.70;99.90;;;;;;5056820;28;20605;-82
2023/03/01 00:52:45;;;;;;;233.68;86.43;;;-5.70;99.90;;;;;;5056899;28;20017;-81
2023/03/01 00:55:11;;;;;;;253.90;95.63;;;-5.70;99.90;;;;;;5057137;28;20052;-82
2023/03/01 00:57:37;;;;;;;238.35;90.50;;;-5.80;99.90;;;;;;5055673;28;20387;-77
2023/03/01 01:00:05;;;;;;;233.95;88.47;;;-5.80;99.90;;;;;;5055295;28;20041;-77
2023/03/01 01:02:33;;;;;;;218.45;83.45;;;-5.80;99.90;;;;;;5055245;28;20028;-82
2023/03/01 01:04:59;;;;;;;233.37;90.40;;;-5.80;99.90;;;;;;5056156;28;20099;-80
2023/03/01 01:07:25;;;;;;;261.52;100.47;;;-5.90;99.90;;;;;;5055182;28;20021;-80
2023/03/01 01:09:50;;;;;;;203.00;81.90;;;-5.90;99.90;;;;;;5055185;28;20025;-78
2023/03/01 01:12:16;;;;;;;175.60;77.68;;;-6.00;99.90;;;;;;5056375;28;20025;-80
2023/03/01 01:14:41;;;;;;;186.60;79.32;;;-6.00;99.90;;;;;;5056426;28;20029;-78
2023/03/01 01:17:07;;;;;;;209.93;85.65;;;-6.00;99.90;;;;;;5055114;28;20028;-77
2023/03/01 01:19:32;;;;;;;223.88;88.03;;;-6.00;99.90;;;;;;5056203;28;20059;-78
2023/03/01 01:21:58;;;;;;;259.63;104.22;;;-6.00;99.90;;;;;;5056297;28;20067;-78
2023/03/01 01:24:24;;;;;;;281.10;107.25;;;-6.00;99.90;;;;;;5055029;28;20024;-78
2023/03/01 01:26:49;;;;;;;312.02;122.18;;;-6.00;99.90;;;;;;5054860;28;20020;-78
2023/03/01 01:29:15;;;;;;;301.42;118.10;;;-6.10;99.90;;;;;;5056163;28;20055;-77
2023/03/01 01:31:42;;;;;;;310.80;117.38;;;-6.10;99.90;;;;;;5056099;28;20025;-78
2023/03/01 01:34:14;;;;;;;298.17;115.63;;;-6.20;99.90;;;;;;5054758;28;20057;-78
2023/03/01 01:36:39;;;;;;;291.05;110.15;;;-6.10;99.90;;;;;;5054693;28;20013;-77
2023/03/01 01:39:05;;;;;;;310.42;115.75;;;-6.10;99.90;;;;;;5054266;28;20478;-78
2023/03/01 01:41:31;;;;;;;279.07;107.10;;;-6.10;99.90;;;;;;5054592;28;20043;-78
2023/03/01 01:44:14;;;;;;;256.85;101.68;;;-6.10;99.90;;;;;;5055860;28;20021;-78
2023/03/01 01:46:52;;;;;;;;;;;-6.10;99.90;;;;;;5054869;28;20056;-78
2023/03/01 01:49:27;;;;;;;216.48;82.85;;;-6.10;99.90;;;;;;5055720;28;19947;-79
2023/03/01 01:52:09;;;;;;;185.23;70.03;;;-6.10;99.90;;;;;;5054533;28;20029;-79
2023/03/01 01:54:47;;;;;;;197.02;76.25;;;-6.10;99.90;;;;;;5054240;28;20029;-78
2023/03/01 01:57:20;;;;;;;148.83;61.73;;;-6.10;99.90;;;;;;5055745;28;20028;-78
2023/03/01 01:59:52;;;;;;;115.03;47.00;;;-6.20;99.90;;;;;;5055552;28;20087;-78
2023/03/01 02:02:19;;;;;;;94.00;41.73;;;-6.20;99.90;;;;;;5055614;28;20017;-78
2023/03/01 02:04:45;;;;;;;100.60;42.13;;;-6.20;99.90;;;;;;5054192;28;20036;-80
2023/03/01 02:07:22;;;;;;;104.55;42.83;;;-6.30;99.90;;;;;;5055583;28;20017;-78
2023/03/01 02:09:49;;;;;;;124.67;55.50;;;-6.20;99.90;;;;;;5054167;28;20017;-79
2023/03/01 02:12:18;;;;;;;160.23;64.65;;;-6.30;99.90;;;;;;5054183;28;20048;-77
2023/03/01 02:14:44;;;;;;;149.83;61.73;;;-6.30;99.90;;;;;;5053932;28;20390;-78
2023/03/01 02:17:12;;;;;;;164.27;67.80;;;-6.30;99.90;;;;;;5053980;28;20025;-77
2023/03/01 02:19:50;;;;;;;164.05;69.35;;;-6.30;99.90;;;;;;5055101;28;20032;-79
2023/03/01 02:22:28;;;;;;;184.43;73.57;;;-6.30;99.90;;;;;;5053840;28;20167;-78
2023/03/01 02:25:12;;;;;;;182.70;75.38;;;-6.40;99.90;;;;;;5055266;28;20086;-79
2023/03/01 02:28:17;;;;;;;188.82;75.22;;;-6.40;99.90;;;;;;5055023;28;20021;-81
2023/03/01 02:33:48;;;;;;;217.13;85.47;;;-6.40;99.90;;;;;;5052795;28;20033;-82
2023/03/01 02:36:18;;;;;;;272.20;101.77;;;-6.40;99.90;;;;;;5049502;28;20040;-79
2023/03/01 02:38:44;;;;;;;235.77;85.80;;;-6.40;99.90;;;;;;5055150;28;20106;-77
2023/03/01 02:41:14;;;;;;;176.70;72.53;;;-6.40;99.90;;;;;;5073706;28;20025;-78
2023/03/01 02:43:40;;;;;;;160.40;67.07;;;-6.50;99.90;;;;;;5074828;28;20031;-81
2023/03/01 02:46:13;;;;;;;158.77;68.93;;;-6.50;99.90;;;;;;5074660;28;20052;-77
2023/03/01 02:48:58;;;;;;;182.25;71.53;;;-6.50;99.90;;;;;;5073393;28;20043;-78
2023/03/01 02:51:33;;;;;;;197.10;79.72;;;-6.50;99.90;;;;;;5073265;28;20025;-78
2023/03/01 02:53:58;;;;;;;173.18;68.07;;;-6.50;99.90;;;;;;5074600;28;20093;-79
2023/03/01 02:56:24;;;;;;;127.20;52.47;;;-6.50;99.90;;;;;;5074414;28;20103;-78
2023/03/01 02:58:51;;;;;;;95.23;44.87;;;-6.60;99.90;;;;;;5073101;28;20036;-78
2023/03/01 03:01:18;;;;;;;93.10;39.70;;;-6.60;99.90;;;;;;5073288;28;20024;-79
2023/03/01 03:03:44;;;;;;;96.53;44.77;;;-6.60;99.90;;;;;;5073283;28;20021;-79
2023/03/01 03:06:09;;;;;;;94.87;42.80;;;-6.60;99.90;;;;;;5073394;28;20475;-79
2023/03/01 03:08:35;;;;;;;86.27;40.30;;;-6.60;99.90;;;;;;5072936;28;20431;-79
2023/03/01 03:11:01;;;;;;;89.40;40.08;;;-6.60;99.90;;;;;;5072813;28;20026;-79
2023/03/01 03:13:28;;;;;;;80.30;36.47;;;-6.60;99.90;;;;;;5074062;28;20475;-79
2023/03/01 03:15:57;;;;;;;70.93;31.80;;;-6.60;99.90;;;;;;5072655;28;20420;-78
2023/03/01 03:18:27;;;;;;;91.93;40.13;;;-6.60;99.90;;;;;;5072947;28;20036;-79
2023/03/01 03:20:54;;;;;;;110.30;47.10;;;-6.60;99.90;;;;;;5072721;28;20024;-77
2023/03/01 03:23:21;;;;;;;124.40;51.43;;;-6.60;99.90;;;;;;5072662;28;20382;-77
2023/03/01 03:25:50;;;;;;;163.17;67.40;;;-6.70;99.90;;;;;;5072539;28;20024;-79
2023/03/01 03:28:16;;;;;;;144.97;59.57;;;-6.70;99.90;;;;;;5072419;28;20110;-79
2023/03/01 03:30:44;;;;;;;106.00;45.90;;;-6.70;99.90;;;;;;5073789;28;20054;-80
2023/03/01 03:33:11;;;;;;;106.60;42.73;;;-6.70;99.90;;;;;;5072522;28;20057;-78
2023/03/01 03:35:47;;;;;;;142.53;61.23;;;-6.70;99.90;;;;;;5073784;28;20024;-77
2023/03/01 03:38:16;;;;;;;119.17;48.53;;;-6.70;99.90;;;;;;5054313;28;20243;-77
2023/03/01 03:40:51;;;;;;;116.70;52.63;;;-6.70;99.90;;;;;;5053728;28;20467;-79
2023/03/01 03:43:21;;;;;;;81.57;35.47;;;-6.80;99.90;;;;;;5052580;28;20512;-78
2023/03/01 03:45:49;;;;;;;61.50;28.70;;;-6.80;99.90;;;;;;5053454;28;20048;-78
2023/03/01 03:48:18;;;;;;;65.83;27.50;;;-6.80;99.90;;;;;;5054244;28;20570;-78
2023/03/01 03:50:52;;;;;;;59.70;27.40;;;-6.80;99.90;;;;;;5053648;28;20032;-78
2023/03/01 03:53:18;;;;;;;59.63;27.43;;;-6.80;99.90;;;;;;5052454;28;20025;-78
2023/03/01 03:55:44;;;;;;;62.97;28.50;;;-6.80;99.90;;;;;;5052124;28;20547;-79
2023/03/01 03:58:10;;;;;;;67.70;28.60;;;-6.80;99.90;;;;;;5052059;28;20021;-77
2023/03/01 04:00:44;;;;;;;65.57;29.73;;;-6.80;99.90;;;;;;5052030;28;20359;-78
2023/03/01 04:03:11;;;;;;;68.20;31.67;;;-6.80;99.90;;;;;;5052188;28;20024;-79
2023/03/01 04:05:39;;;;;;;61.63;29.03;;;-6.80;99.90;;;;;;5053195;28;20071;-78
2023/03/01 04:08:08;;;;;;;64.13;29.00;;;-6.90;99.90;;;;;;5052170;28;20021;-80
2023/03/01 04:10:43;;;;;;;55.67;26.33;;;-6.80;99.90;;;;;;5053076;28;20029;-80
2023/03/01 04:13:12;;;;;;;73.40;27.47;;;-6.80;99.90;;;;;;5052015;28;20391;-78
2023/03/01 04:15:38;;;;;;;67.47;30.60;;;-6.80;99.90;;;;;;5053166;28;20368;-78
2023/03/01 04:18:05;;;;;;;73.03;33.97;;;-6.80;99.90;;;;;;5052906;28;20028;-78
2023/03/01 04:20:34;;;;;;;66.87;34.07;;;-6.80;99.90;;;;;;5051778;28;20021;-77
2023/03/01 04:23:15;;;;;;;95.23;39.63;;;-6.80;99.90;;;;;;5051915;28;20048;-78
2023/03/01 04:25:45;;;;;;;91.33;37.77;;;-6.90;99.90;;;;;;5052075;28;20021;-78
2023/03/01 04:28:11;;;;;;;105.03;43.17;;;-6.90;99.90;;;;;;5053392;28;20048;-78
2023/03/01 04:30:38;;;;;;;89.30;37.97;;;-6.90;99.90;;;;;;5052971;28;20068;-79
2023/03/01 04:33:05;;;;;;;70.93;33.43;;;-7.00;99.90;;;;;;5053041;28;20391;-80
2023/03/01 04:35:32;;;;;;;67.07;33.27;;;-7.00;99.90;;;;;;5051580;28;20116;-78
2023/03/01 04:37:58;;;;;;;72.67;32.07;;;-7.00;99.90;;;;;;5052973;28;20021;-77
2023/03/01 04:40:24;;;;;;;49.77;24.63;;;-7.00;99.90;;;;;;5052983;28;20036;-77
2023/03/01 04:42:49;;;;;;;69.80;31.70;;;-7.00;99.90;;;;;;5052915;28;20383;-78
2023/03/01 04:45:15;;;;;;;70.13;32.73;;;-7.00;99.90;;;;;;5051379;28;20025;-79
2023/03/01 04:47:44;;;;;;;77.03;33.30;;;-7.00;99.90;;;;;;5051749;28;20040;-77
2023/03/01 04:50:10;;;;;;;86.73;40.13;;;-7.00;99.90;;;;;;5052756;28;20021;-80
2023/03/01 04:52:36;;;;;;;101.97;41.77;;;-7.00;99.90;;;;;;5052751;28;20071;-79
2023/03/01 04:55:03;;;;;;;102.47;42.17;;;-7.10;99.90;;;;;;5051575;28;20018;-78
2023/03/01 04:57:29;;;;;;;96.63;45.87;;;-7.10;99.90;;;;;;5052752;28;20025;-78
2023/03/01 04:59:54;;;;;;;98.40;48.93;;;-7.20;99.90;;;;;;5052811;28;20544;-80
2023/03/01 05:02:20;;;;;;;97.30;46.50;;;-7.10;99.90;;;;;;5051438;28;20032;-79
2023/03/01 05:04:46;;;;;;;92.37;42.40;;;-7.20;99.90;;;;;;5051349;28;20498;-77
2023/03/01 05:07:12;;;;;;;97.97;41.17;;;-7.10;99.90;;;;;;5051433;28;20356;-77
2023/03/01 05:09:39;;;;;;;81.43;36.63;;;-7.10;99.90;;;;;;5051360;28;20078;-78
2023/03/01 05:12:04;;;;;;;85.70;39.33;;;-7.10;99.90;;;;;;5052582;28;20017;-77
2023/03/01 05:14:30;;;;;;;81.57;37.97;;;-7.10;99.90;;;;;;5052624;28;20028;-80
2023/03/01 05:17:03;;;;;;;90.33;39.20;;;-7.20;99.90;;;;;;5052489;28;20025;-78
2023/03/01 05:19:30;;;;;;;88.63;40.00;;;-7.20;99.90;;;;;;5006218;28;20054;-78
2023/03/01 05:22:05;;;;;;;79.50;36.73;;;-7.20;99.90;;;;;;4917040;28;20031;-77
2023/03/01 05:24:33;;;;;;;75.13;34.13;;;-7.10;99.90;;;;;;4970725;28;20030;-77
2023/03/01 05:26:59;;;;;;;77.37;36.13;;;-7.20;99.90;;;;;;4970883;28;20026;-78
2023/03/01 05:29:26;;;;;;;75.10;34.30;;;-7.20;99.90;;;;;;4972573;28;20023;-77
2023/03/01 05:31:53;;;;;;;71.60;34.67;;;-7.20;99.90;;;;;;4958494;28;20488;-77
2023/03/01 05:34:22;;;;;;;73.17;34.10;;;-7.20;99.90;;;;;;4953503;28;20027;-78
2023/03/01 05:36:48;;;;;;;79.27;38.50;;;-7.20;99.90;;;;;;4953407;28;20110;-80
2023/03/01 05:39:14;;;;;;;90.77;37.13;;;-7.30;99.90;;;;;;4953386;28;20078;-80
2023/03/01 05:41:40;;;;;;;92.40;41.57;;;-7.20;99.90;;;;;;4967010;28;20106;-77
2023/03/01 05:44:06;;;;;;;76.53;36.60;;;-7.20;99.90;;;;;;4973937;28;20027;-77
2023/03/01 05:46:32;;;;;;;98.13;42.05;;;-7.30;99.90;;;;;;4972481;28;20459;-78
2023/03/01 05:48:57;;;;;;;64.17;27.60;;;-7.20;99.90;;;;;;4973935;28;20023;-77
2023/03/01 05:51:23;;;;;;;53.77;23.83;;;-7.20;99.90;;;;;;4970561;28;20119;-79
2023/03/01 05:53:49;;;;;;;64.30;26.30;;;-7.20;99.90;;;;;;4964152;28;20033;-77
2023/03/01 05:56:14;;;;;;;51.57;25.57;;;-7.20;99.90;;;;;;4967676;28;20029;-78
2023/03/01 05:58:40;;;;;;;76.30;33.30;;;-7.10;99.90;;;;;;4973604;28;20035;-77
2023/03/01 06:01:10;;;;;;;76.05;32.88;;;-7.10;99.90;;;;;;4973135;28;20076;-77
2023/03/01 06:03:36;;;;;;;69.23;31.23;;;-7.00;99.90;;;;;;4969205;28;20023;-77
2023/03/01 06:06:01;;;;;;;70.43;32.50;;;-6.90;99.90;;;;;;4972283;28;20034;-79
2023/03/01 06:08:27;;;;;;;64.13;30.10;;;-6.90;99.90;;;;;;4972448;28;20506;-79
2023/03/01 06:10:53;;;;;;;49.93;24.10;;;-6.90;99.90;;;;;;4973598;28;20026;-77
2023/03/01 06:13:19;;;;;;;50.20;24.27;;;-6.80;99.90;;;;;;4973443;28;20045;-77
2023/03/01 06:15:44;;;;;;;53.55;23.05;;;-6.70;99.90;;;;;;4973389;28;20019;-78
2023/03/01 06:18:10;;;;;;;45.55;23.00;;;-6.70;99.90;;;;;;4971894;28;20361;-77
2023/03/01 06:20:35;;;;;;;64.90;30.13;;;-6.60;99.90;;;;;;4973202;28;20066;-78
2023/03/01 06:23:01;;;;;;;71.40;32.80;;;-6.50;99.90;;;;;;4955455;28;20485;-79
2023/03/01 06:25:27;;;;;;;99.07;46.87;;;-6.50;99.90;;;;;;4952874;28;20034;-77
2023/03/01 06:27:53;;;;;;;78.20;38.57;;;-6.40;99.90;;;;;;4954117;28;20033;-77
2023/03/01 06:30:20;;;;;;;73.28;33.10;;;-6.30;99.90;;;;;;4952531;28;20396;-77
2023/03/01 06:32:46;;;;;;;71.37;32.87;;;-6.30;99.90;;;;;;4953004;28;20023;-77
2023/03/01 06:35:14;;;;;;;74.97;36.13;;;-6.20;99.90;;;;;;4952391;29;20131;-78
2023/03/01 06:37:41;;;;;;;74.47;33.88;;;-6.10;99.90;;;;;;4953826;28;20473;-78
2023/03/01 06:40:08;;;;;;;81.88;39.67;;;-5.90;99.90;;;;;;4952470;28;20123;-77
2023/03/01 06:42:48;;;;;;;82.00;38.15;;;-5.80;99.90;;;;;;4952627;28;20028;-78
2023/03/01 06:45:14;;;;;;;67.30;37.80;;;-5.60;99.90;;;;;;4965062;28;20393;-77
2023/03/01 06:47:40;;;;;;;86.70;42.15;;;-5.50;99.90;;;;;;4953085;28;20037;-78
2023/03/01 06:50:06;;;;;;;115.78;55.88;;;-5.30;99.90;;;;;;4953783;28;20027;-78
2023/03/01 06:52:31;;;;;;;265.27;106.22;;;-5.10;99.90;;;;;;4952423;28;20032;-78
2023/03/01 06:54:57;;;;;;;175.73;75.80;;;-5.00;99.90;;;;;;4951399;28;20034;-77
2023/03/01 06:57:23;;;;;;;126.22;61.00;;;-4.90;99.90;;;;;;4949957;28;20031;-77
2023/03/01 06:59:49;;;;;;;239.93;94.45;;;-4.70;99.90;;;;;;4950993;28;20042;-78
2023/03/01 07:02:15;;;;;;;265.42;101.05;;;-4.50;99.90;;;;;;4951610;28;20016;-79
2023/03/01 07:04:41;;;;;;;195.48;77.38;;;-4.40;99.90;;;;;;4950150;29;20085;-78
2023/03/01 07:07:07;;;;;;;217.20;84.95;;;-4.20;99.90;;;;;;4951461;28;20023;-78
2023/03/01 07:09:33;;;;;;;330.60;120.65;;;-4.10;99.90;;;;;;4954067;28;20042;-78
2023/03/01 07:11:59;;;;;;;139.57;61.35;;;-3.90;99.90;;;;;;4949320;29;20026;-78
2023/03/01 07:14:25;;;;;;;147.18;66.85;;;-3.70;99.90;;;;;;4950145;28;20031;-78
2023/03/01 07:16:52;;;;;;;147.98;67.63;;;-3.60;99.90;;;;;;4950186;28;20023;-78
2023/03/01 07:19:17;;;;;;;184.73;80.85;;;-3.40;99.90;;;;;;4951226;29;20531;-78
2023/03/01 07:21:43;;;;;;;143.25;64.10;;;-3.30;99.90;;;;;;4951035;28;20054;-78
2023/03/01 07:24:09;;;;;;;85.32;45.17;;;-3.10;99.90;;;;;;4950980;28;20141;-78
2023/03/01 07:26:34;;;;;;;99.15;46.55;;;-2.90;99.90;;;;;;4952118;28;20042;-78
2023/03/01 07:29:02;;;;;;;90.72;42.78;;;-2.70;99.90;;;;;;4950112;29;20477;-78
2023/03/01 07:31:28;;;;;;;91.80;43.80;;;-2.40;99.90;;;;;;4949837;28;20440;-78
2023/03/01 07:33:54;;;;;;;91.53;46.22;;;-2.20;99.90;;;;;;4949868;28;20063;-78
2023/03/01 07:36:20;;;;;;;107.60;49.45;;;-2.00;99.90;;;;;;4949993;29;20497;-78
2023/03/01 07:38:46;;;;;;;106.90;48.55;;;-1.80;99.90;;;;;;4949676;28;20054;-78
2023/03/01 07:41:12;;;;;;;103.80;48.63;;;-1.60;99.90;;;;;;4949944;29;20027;-77
2023/03/01 07:43:37;;;;;;;106.25;51.00;;;-1.50;99.90;;;;;;4953218;28;20080;-78
2023/03/01 07:46:04;;;;;;;187.25;82.75;;;-1.30;99.90;;;;;;4952978;28;20130;-77
2023/03/01 07:48:31;;;;;;;282.70;125.18;;;-1.10;99.90;;;;;;4953121;28;20031;-78
2023/03/01 07:51:05;;;;;;;203.18;90.30;;;-1.00;99.90;;;;;;4951008;28;20080;-78
2023/03/01 07:53:33;;;;;;;167.15;81.05;;;-0.80;99.90;;;;;;4952884;28;20020;-78
2023/03/01 07:56:12;;;;;;;152.48;67.28;;;-0.70;99.90;;;;;;4951670;29;20028;-78
2023/03/01 07:58:40;;;;;;;132.05;61.28;;;-0.50;99.90;;;;;;4951600;29;20031;-78
2023/03/01 08:01:07;;;;;;;117.00;52.25;;;-0.40;99.90;;;;;;4952918;28;20034;-78
2023/03/01 08:03:34;;;;;;;101.68;48.83;;;-0.20;99.90;;;;;;4953052;28;20038;-78
2023/03/01 08:06:01;;;;;;;87.88;40.30;;;0.00;99.90;;;;;;4952773;28;20031;-79
2023/03/01 08:08:27;;;;;;;58.97;28.88;;;0.20;99.90;;;;;;4952788;29;20046;-78
2023/03/01 08:10:55;;;;;;;58.40;30.33;;;0.30;99.90;;;;;;4951593;28;20125;-78
2023/03/01 08:13:22;;;;;;;62.70;27.90;;;0.40;93.40;;;;;;4952637;28;20098;-78
2023/03/01 08:15:51;;;;;;;55.40;27.13;;;0.50;86.40;;;;;;4952589;28;20023;-79
2023/03/01 08:18:18;;;;;;;51.97;23.95;;;0.60;81.50;;;;;;4952809;29;20038;-78
2023/03/01 08:20:43;;;;;;;55.03;23.40;;;0.70;78.20;;;;;;4951353;28;20025;-78
2023/03/01 08:23:09;;;;;;;34.65;18.75;;;0.80;74.90;;;;;;4952627;28;20063;-78
2023/03/01 08:25:35;;;;;;;258.38;98.15;;;0.90;73.20;;;;;;4951222;28;20039;-78
2023/03/01 08:28:00;;;;;;;87.45;38.17;;;0.90;72.50;;;;;;4952507;28;20473;-78
2023/03/01 08:30:26;;;;;;;43.15;20.60;;;1.10;71.60;;;;;;4951205;28;20024;-79
2023/03/01 08:32:51;;;;;;;75.45;30.83;;;1.20;71.20;;;;;;4951432;29;20020;-79
2023/03/01 08:35:17;;;;;;;146.20;58.05;;;1.30;69.90;;;;;;4951016;28;20023;-78
2023/03/01 08:37:43;;;;;;;94.75;37.15;;;1.40;69.00;;;;;;4951214;28;20027;-78
2023/03/01 08:40:09;;;;;;;37.05;17.65;;;1.50;68.50;;;;;;4951068;29;20074;-78
2023/03/01 08:42:36;;;;;;;38.88;17.70;;;1.50;65.70;;;;;;4952610;28;20023;-78
2023/03/01 08:45:03;;;;;;;31.88;15.88;;;1.50;64.90;;;;;;4952586;29;20027;-79
2023/03/01 08:47:29;;;;;;;25.75;14.48;;;1.50;64.40;;;;;;4951985;29;20122;-79
2023/03/01 08:49:54;;;;;;;25.83;14.60;;;1.70;63.60;;;;;;4951443;29;20054;-79
2023/03/01 08:52:20;;;;;;;22.42;12.98;;;1.70;63.00;;;;;;4950934;28;20029;-79
2023/03/01 08:54:49;;;;;;;39.50;19.63;;;1.80;63.10;;;;;;4952256;28;20078;-79
2023/03/01 08:57:14;;;;;;;33.90;16.85;;;1.90;63.50;;;;;;4952397;29;20389;-79
2023/03/01 08:59:40;;;;;;;36.03;17.00;;;2.00;63.90;;;;;;4952370;28;20035;-79
2023/03/01 09:02:12;;;;;;;38.97;16.05;;;2.00;62.90;;;;;;4952006;28;20038;-79
2023/03/01 09:04:38;;;;;;;35.47;17.27;;;2.00;63.20;;;;;;4953345;29;20089;-79
2023/03/01 09:07:03;;;;;;;30.05;15.05;;;2.20;63.80;;;;;;4953988;29;20271;-79
2023/03/01 09:09:29;;;;;;;33.35;17.98;;;2.30;63.50;;;;;;4955233;29;20032;-79
2023/03/01 09:11:55;;;;;;;25.08;14.05;;;2.40;64.00;;;;;;4955660;28;20484;-79
2023/03/01 09:14:20;;;;;;;31.73;15.70;;;2.50;64.30;;;;;;4955242;29;20027;-79
2023/03/01 09:16:46;;;;;;;33.80;16.65;;;2.50;63.10;;;;;;4954209;28;20063;-79
2023/03/01 09:19:12;;;;;;;22.02;14.23;;;2.50;62.20;;;;;;4954165;28;20134;-80
2023/03/01 09:21:38;;;;;;;21.58;13.77;;;2.30;61.20;;;;;;4954137;28;20404;-79
2023/03/01 09:24:04;;;;;;;24.10;13.73;;;2.40;61.40;;;;;;4954216;28;20024;-80
2023/03/01 09:26:29;;;;;;;27.42;16.48;;;2.50;61.90;;;;;;4954941;28;20027;-79
2023/03/01 09:28:56;;;;;;;39.28;19.73;;;2.50;60.80;;;;;;4955132;29;20032;-79
2023/03/01 09:31:23;;;;;;;42.80;19.67;;;2.60;60.80;;;;;;4955005;28;20023;-79
2023/03/01 09:33:50;;;;;;;28.67;13.95;;;2.60;59.80;;;;;;4953762;28;20080;-79
2023/03/01 09:36:21;;;;;;;23.40;13.93;;;2.70;60.10;;;;;;4953563;28;20019;-80
2023/03/01 09:38:47;;;;;;;22.65;13.00;;;2.80;60.10;;;;;;4953943;29;20075;-80
2023/03/01 09:41:38;;;;;;;26.17;13.85;;;2.90;59.30;;;;;;4953836;28;20039;-80
2023/03/01 09:44:31;;;;;;;29.85;14.73;;;2.90;58.50;;;;;;4953478;29;20027;-80
2023/03/01 09:46:57;;;;;;;24.42;13.35;;;2.90;58.10;;;;;;4953787;28;20086;-80
2023/03/01 09:49:30;;;;;;;22.63;12.50;;;2.90;58.80;;;;;;4954818;28;20232;-80
2023/03/01 09:51:58;;;;;;;;;;;2.90;58.90;;;;;;4955223;29;20031;-80
2023/03/01 09:54:24;;;;;;;25.42;13.35;;;3.00;59.30;;;;;;4953828;28;19906;-80
2023/03/01 09:57:06;;;;;;;27.48;13.48;;;3.10;59.10;;;;;;4953363;28;20019;-80
2023/03/01 09:59:56;;;;;;;90.72;36.60;;;3.20;59.30;;;;;;4953392;28;20126;-80
2023/03/01 10:02:28;;;;;;;32.63;17.10;;;3.40;59.40;;;;;;4954059;28;20027;-80
2023/03/01 10:05:15;;;;;;;18.25;12.50;;;3.40;59.00;;;;;;4953365;29;20027;-80
2023/03/01 10:08:05;;;;;;;23.92;12.43;;;3.40;58.40;;;;;;4954605;28;20035;-80
2023/03/01 10:10:37;;;;;;;24.05;13.60;;;3.40;57.50;;;;;;4954384;28;20028;-80
2023/03/01 10:13:21;;;;;;;23.73;13.27;;;3.50;57.90;;;;;;4953449;28;20066;-80
2023/03/01 10:15:55;;;;;;;23.25;13.00;;;3.50;58.50;;;;;;4953922;28;20023;-80
2023/03/01 10:18:27;;;;;;;20.65;12.63;;;3.60;58.50;;;;;;4954286;29;20031;-80
2023/03/01 10:21:05;;;;;;;25.85;13.20;;;3.70;57.90;;;;;;4953598;29;20427;-80
2023/03/01 10:23:32;;;;;;;24.20;15.10;;;3.60;57.30;;;;;;4954203;28;20019;-80
2023/03/01 10:26:12;;;;;;;22.15;13.38;;;3.60;56.80;;;;;;4952915;28;20023;-80
2023/03/01 10:28:50;;;;;;;20.13;12.65;;;3.70;56.40;;;;;;4954526;28;20477;-80
2023/03/01 10:31:22;;;;;;;22.27;12.73;;;3.60;56.50;;;;;;4952786;29;20501;-80
2023/03/01 10:33:51;;;;;;;72.22;31.45;;;3.50;56.10;;;;;;4954054;28;20073;-80
2023/03/01 10:36:17;;;;;;;20.88;12.90;;;3.60;56.90;;;;;;4953996;29;20070;-80
2023/03/01 10:38:54;;;;;;;22.45;13.13;;;3.60;56.50;;;;;;4953854;28;20198;-80
2023/03/01 10:41:24;;;;;;;21.35;12.90;;;3.70;56.90;;;;;;4953078;29;20027;-80
2023/03/01 10:43:56;;;;;;;25.50;13.35;;;3.70;55.90;;;;;;4953890;28;20111;-80
2023/03/01 10:46:26;;;;;;;24.38;13.43;;;3.80;56.80;;;;;;4952729;28;20514;-80
2023/03/01 10:49:14;;;;;;;24.52;14.15;;;3.80;56.00;;;;;;4952517;28;20504;-80
2023/03/01 10:51:41;;;;;;;22.00;12.10;;;3.70;55.40;;;;;;4952623;29;20039;-80
2023/03/01 10:54:21;;;;;;;25.00;12.95;;;3.80;55.20;;;;;;4952908;28;20016;-80
2023/03/01 10:56:59;;;;;;;22.50;12.85;;;3.90;56.30;;;;;;4953763;28;20469;-80
2023/03/01 10:59:33;;;;;;;22.83;12.13;;;4.00;56.50;;;;;;4952584;29;20039;-80
2023/03/01 11:02:23;;;;;;;22.73;12.80;;;3.90;56.00;;;;;;4953557;28;20023;-80
2023/03/01 11:05:16;;;;;;;20.88;11.90;;;4.00;55.70;;;;;;4953405;28;20111;-80
2023/03/01 11:07:56;;;;;;;29.23;14.80;;;4.10;56.50;;;;;;4953701;29;20019;-80
2023/03/01 11:10:29;;;;;;;29.55;15.30;;;4.10;56.10;;;;;;4953808;28;20035;-80
2023/03/01 11:13:14;;;;;;;22.42;12.00;;;4.20;56.20;;;;;;4952585;29;20039;-81
2023/03/01 11:15:40;;;;;;;19.90;11.50;;;4.30;55.20;;;;;;4953504;28;20452;-81
2023/03/01 11:18:21;;;;;;;24.30;12.70;;;4.30;55.10;;;;;;4953254;28;20024;-80
2023/03/01 11:20:51;;;;;;;19.48;12.90;;;4.30;55.70;;;;;;4952012;29;20035;-80
2023/03/01 11:23:17;;;;;;;11.77;7.28;;;4.40;54.70;;;;;;4953519;28;20031;-80
2023/03/01 11:25:55;;;;;;;13.35;6.35;;;4.30;48.80;;;;;;4952672;28;20022;-80
2023/03/01 11:28:22;;;;;;;14.10;8.57;;;4.30;43.80;;;;;;4953613;28;20027;-80
2023/03/01 11:31:11;;;;;;;12.50;7.70;;;4.40;44.40;;;;;;4952244;28;20166;-80
2023/03/01 11:33:37;;;;;;;12.68;7.22;;;4.40;46.30;;;;;;4952320;29;20031;-80
2023/03/01 11:36:06;;;;;;;13.85;8.23;;;4.40;45.70;;;;;;4951640;28;20477;-80
2023/03/01 11:38:35;;;;;;;12.93;7.60;;;4.40;46.00;;;;;;4953113;28;20496;-80
2023/03/01 11:41:16;;;;;;;10.73;7.18;;;4.40;44.00;;;;;;4953206;28;20028;-80
2023/03/01 11:43:58;;;;;;;11.00;6.95;;;4.40;41.80;;;;;;4953276;28;20106;-81
2023/03/01 11:46:50;;;;;;;10.98;6.28;;;4.40;41.10;;;;;;4951715;28;20153;-80
2023/03/01 11:49:42;;;;;;;11.02;7.10;;;4.40;41.30;;;;;;4953031;29;20050;-80
2023/03/01 11:52:21;;;;;;;17.23;10.07;;;4.50;44.30;;;;;;4952108;28;20542;-80
2023/03/01 11:54:59;;;;;;;13.00;7.65;;;4.60;45.10;;;;;;4951721;28;20073;-80
2023/03/01 11:57:43;;;;;;;15.85;8.77;;;4.50;43.90;;;;;;4963381;28;20502;-80
2023/03/01 12:00:23;;;;;;;17.73;9.85;;;4.60;43.50;;;;;;4970840;28;20039;-80
2023/03/01 12:03:23;;;;;;;12.38;7.40;;;4.60;43.90;;;;;;4964998;28;20019;-80
2023/03/01 12:06:07;;;;;;;14.88;9.45;;;4.60;45.90;;;;;;4952252;28;20576;-81
2023/03/01 12:08:45;;;;;;;10.10;6.28;;;4.60;41.90;;;;;;4953373;28;20039;-81
2023/03/01 12:11:22;;;;;;;12.93;7.57;;;4.60;40.10;;;;;;4960267;28;20058;-81
2023/03/01 12:14:09;;;;;;;25.80;12.80;;;4.60;42.90;;;;;;4959785;28;20015;-81
2023/03/01 12:16:59;;;;;;;11.70;7.65;;;4.80;42.10;;;;;;4960589;28;20441;-81
2023/03/01 12:19:52;;;;;;;17.92;9.73;;;4.70;41.40;;;;;;4955026;28;20081;-80
2023/03/01 12:22:30;;;;;;;15.07;9.13;;;4.80;43.80;;;;;;4951433;29;20027;-80
2023/03/01 12:25:12;;;;;;;17.90;8.98;;;4.90;46.10;;;;;;4951311;29;20061;-81
2023/03/01 12:28:02;;;;;;;15.38;10.13;;;5.00;46.00;;;;;;4951170;28;20035;-81
2023/03/01 12:30:34;;;;;;;19.05;10.52;;;4.90;45.10;;;;;;4952156;28;20110;-81
2023/03/01 12:33:05;;;;;;;18.08;9.73;;;4.90;46.10;;;;;;4950989;29;20034;-82
2023/03/01 12:35:54;;;;;;;19.17;10.30;;;5.00;46.90;;;;;;4952111;28;20023;-81
2023/03/01 12:38:28;;;;;;;18.30;9.45;;;5.10;45.60;;;;;;4954202;28;20074;-81
2023/03/01 12:41:32;;;;;;;16.52;8.82;;;5.10;45.30;;;;;;4953842;28;20046;-81
2023/03/01 12:44:06;;;;;;;18.45;9.27;;;5.10;44.70;;;;;;4953423;28;20026;-81
2023/03/01 12:46:54;;;;;;;11.27;8.60;;;5.00;42.70;;;;;;4954542;28;20051;-81